createdAt,value
2018-08-18T00:01:57.708Z,13.01
2018-08-18T00:04:55.587Z,12.77
2018-08-18T00:07:53.868Z,12.82
2018-08-18T00:10:51.802Z,12.73
2018-08-18T00:13:59.948Z,12.76
2018-08-18T00:16:57.995Z,12.82
2018-08-18T00:20:03.076Z,12.93
2018-08-18T00:23:01.038Z,12.93
2018-08-18T00:25:59.108Z,12.95
2018-08-18T00:28:57.048Z,13.00
2018-08-18T00:31:55.833Z,12.74
2018-08-18T00:34:58.983Z,12.72
2018-08-18T00:37:56.508Z,12.74
2018-08-18T00:40:54.344Z,12.64
2018-08-18T00:43:52.361Z,12.63
2018-08-18T00:46:51.457Z,12.70
2018-08-18T00:49:49.535Z,12.68
2018-08-18T00:52:47.500Z,12.57
2018-08-18T00:55:45.638Z,12.31
2018-08-18T00:58:42.691Z,12.20
2018-08-18T01:01:39.810Z,12.19
2018-08-18T01:04:37.772Z,12.28
2018-08-18T01:07:34.865Z,12.19
2018-08-18T01:10:32.608Z,12.23
2018-08-18T01:13:30.668Z,12.20
2018-08-18T01:16:27.712Z,12.23
2018-08-18T01:19:27.551Z,12.34
2018-08-18T01:22:25.621Z,12.37
2018-08-18T01:25:23.584Z,12.39
2018-08-18T01:28:21.683Z,12.28
2018-08-18T01:31:32.047Z,12.04
2018-08-18T01:34:29.893Z,11.92
2018-08-18T01:37:28.564Z,11.94
2018-08-18T01:40:26.521Z,12.06
2018-08-18T01:43:23.712Z,12.05
2018-08-18T01:46:23.752Z,11.95
2018-08-18T01:49:57.167Z,11.80
2018-08-18T01:52:54.103Z,11.75
2018-08-18T01:55:52.255Z,11.83
2018-08-18T01:58:49.255Z,11.72
2018-08-18T02:01:47.424Z,11.77
2018-08-18T02:04:44.440Z,11.92
2018-08-18T02:07:42.385Z,11.96
2018-08-18T02:10:39.449Z,11.65
2018-08-18T02:13:36.598Z,11.73
2018-08-18T02:16:34.891Z,11.80
2018-08-18T02:19:32.246Z,11.85
2018-08-18T02:22:31.072Z,11.90
2018-08-18T02:25:28.977Z,11.92
2018-08-18T02:28:33.071Z,11.94
2018-08-18T02:31:29.911Z,11.94
2018-08-18T02:34:27.865Z,11.86
2018-08-18T02:37:25.716Z,11.60
2018-08-18T02:40:25.773Z,11.48
2018-08-18T02:43:28.915Z,11.54
2018-08-18T02:46:38.724Z,11.43
2018-08-18T02:49:40.892Z,11.31
2018-08-18T02:52:38.355Z,11.26
2018-08-18T02:55:35.819Z,11.28
2018-08-18T02:58:32.840Z,11.17
2018-08-18T03:01:34.857Z,11.16
2018-08-18T03:04:32.794Z,11.37
2018-08-18T03:07:30.168Z,11.45
2018-08-18T03:10:33.211Z,11.28
2018-08-18T03:13:33.406Z,11.21
2018-08-18T03:16:31.243Z,11.23
2018-08-18T03:19:28.432Z,11.30
2018-08-18T03:22:25.548Z,11.34
2018-08-18T03:25:22.595Z,11.32
2018-08-18T03:28:20.587Z,11.32
2018-08-18T03:31:17.955Z,11.25
2018-08-18T03:34:15.614Z,11.16
2018-08-18T03:37:12.890Z,11.28
2018-08-18T03:40:09.959Z,11.12
2018-08-18T03:43:06.983Z,11.06
2018-08-18T03:46:04.903Z,10.99
2018-08-18T03:49:02.630Z,11.00
2018-08-18T03:52:00.771Z,11.05
2018-08-18T03:54:58.804Z,10.99
2018-08-18T03:58:01.244Z,10.85
2018-08-18T04:00:58.737Z,10.85
2018-08-18T04:03:56.503Z,10.92
2018-08-18T04:06:54.766Z,11.03
2018-08-18T04:09:51.983Z,11.12
2018-08-18T04:12:49.606Z,11.04
2018-08-18T04:15:46.961Z,11.08
2018-08-18T04:18:43.815Z,11.12
2018-08-18T04:21:41.645Z,11.36
2018-08-18T04:24:47.416Z,11.50
2018-08-18T04:28:03.346Z,11.56
2018-08-18T04:31:00.845Z,11.54
2018-08-18T04:33:57.887Z,11.64
2018-08-18T04:36:55.115Z,11.73
2018-08-18T04:39:52.155Z,11.86
2018-08-18T04:42:49.863Z,11.99
2018-08-18T04:45:47.393Z,12.29
2018-08-18T04:48:50.989Z,12.82
2018-08-18T04:51:48.129Z,13.15
2018-08-18T04:54:46.067Z,13.67
2018-08-18T04:57:43.855Z,14.05
2018-08-18T05:00:41.659Z,14.19
2018-08-18T05:03:38.961Z,14.68
2018-08-18T05:06:37.807Z,15.53
2018-08-18T05:09:34.771Z,16.49
2018-08-18T05:12:32.637Z,17.55
2018-08-18T05:15:30.474Z,18.88
2018-08-18T05:18:28.463Z,19.35
2018-08-18T05:21:27.359Z,20.00
2018-08-18T05:24:36.547Z,20.72
2018-08-18T05:27:33.543Z,21.11
2018-08-18T05:30:30.622Z,21.84
2018-08-18T05:33:27.661Z,22.52
2018-08-18T05:36:25.734Z,22.45
2018-08-18T05:39:23.667Z,22.79
2018-08-18T05:42:20.803Z,23.43
2018-08-18T05:45:28.280Z,22.72
2018-08-18T05:48:26.436Z,23.73
2018-08-18T05:51:23.903Z,23.17
2018-08-18T05:54:27.704Z,22.84
2018-08-18T05:57:25.989Z,22.05
2018-08-18T06:00:25.123Z,21.42
2018-08-18T06:03:22.435Z,22.70
2018-08-18T06:06:21.368Z,22.60
2018-08-18T06:09:21.362Z,22.26
2018-08-18T06:12:25.320Z,22.45
2018-08-18T06:15:24.200Z,22.51
2018-08-18T06:18:22.386Z,22.85
2018-08-18T06:21:19.512Z,22.67
2018-08-18T06:24:16.775Z,23.50
2018-08-18T06:27:14.256Z,23.97
2018-08-18T06:30:12.561Z,23.92
2018-08-18T06:33:09.411Z,23.10
2018-08-18T06:36:06.637Z,23.85
2018-08-18T06:39:04.183Z,24.79
2018-08-18T06:42:02.008Z,24.42
2018-08-18T06:44:59.943Z,24.76
2018-08-18T06:47:57.815Z,25.34
2018-08-18T06:50:55.576Z,25.07
2018-08-18T06:53:55.696Z,25.34
2018-08-18T06:56:53.787Z,25.76
2018-08-18T06:59:51.855Z,25.30
2018-08-18T07:02:49.003Z,26.95
2018-08-18T07:05:46.715Z,26.43
2018-08-18T07:08:50.493Z,27.05
2018-08-18T07:11:48.265Z,28.33
2018-08-18T07:14:46.559Z,29.05
2018-08-18T07:17:44.516Z,28.59
2018-08-18T07:20:42.213Z,29.43
2018-08-18T07:23:40.183Z,29.58
2018-08-18T07:26:37.515Z,29.97
2018-08-18T07:29:35.336Z,28.68
2018-08-18T07:32:32.950Z,28.90
2018-08-18T07:35:31.014Z,29.34
2018-08-18T07:38:28.904Z,29.79
2018-08-18T07:41:26.875Z,31.18
2018-08-18T07:44:25.016Z,30.42
2018-08-18T07:47:24.855Z,31.04
2018-08-18T07:50:22.517Z,30.12
2018-08-18T07:53:21.573Z,30.48
2018-08-18T07:56:19.324Z,30.70
2018-08-18T07:59:17.251Z,31.56
2018-08-18T08:02:15.074Z,32.61
2018-08-18T08:05:12.422Z,31.67
2018-08-18T08:08:09.944Z,31.54
2018-08-18T08:11:14.292Z,30.19
2018-08-18T08:14:11.418Z,29.65
2018-08-18T08:17:08.714Z,30.51
2018-08-18T08:20:06.037Z,30.77
2018-08-18T08:23:04.680Z,30.54
2018-08-18T08:26:02.013Z,29.77
2018-08-18T08:28:59.890Z,31.07
2018-08-18T08:31:58.081Z,31.13
2018-08-18T08:34:56.137Z,30.87
2018-08-18T08:37:55.137Z,30.56
2018-08-18T08:40:53.213Z,30.60
2018-08-18T08:43:57.315Z,30.88
2018-08-18T08:46:59.194Z,30.26
2018-08-18T08:49:56.260Z,31.12
2018-08-18T08:52:57.499Z,31.60
2018-08-18T08:55:55.534Z,31.32
2018-08-18T08:58:57.842Z,31.48
2018-08-18T09:01:55.942Z,30.92
2018-08-18T09:04:54.025Z,31.17
2018-08-18T09:07:51.880Z,31.20
2018-08-18T09:10:49.951Z,31.14
2018-08-18T09:13:48.043Z,32.57
2018-08-18T09:16:45.604Z,30.71
2018-08-18T09:19:42.756Z,32.09
2018-08-18T09:22:39.923Z,31.93
2018-08-18T09:25:38.284Z,32.33
2018-08-18T09:28:36.167Z,31.24
2018-08-18T09:31:34.829Z,29.62
2018-08-18T09:34:32.505Z,29.63
2018-08-18T09:37:29.544Z,29.75
2018-08-18T09:40:27.656Z,29.64
2018-08-18T09:43:31.675Z,30.00
2018-08-18T09:46:28.726Z,28.49
2018-08-18T09:49:26.524Z,28.72
2018-08-18T09:52:25.595Z,27.78
2018-08-18T09:55:23.489Z,26.45
2018-08-18T09:58:21.536Z,25.82
2018-08-18T10:01:19.438Z,25.90
2018-08-18T10:04:17.436Z,25.64
2018-08-18T10:07:15.422Z,25.76
2018-08-18T10:10:13.429Z,26.03
2018-08-18T10:13:11.387Z,25.72
2018-08-18T10:16:09.469Z,25.84
2018-08-18T10:19:07.468Z,26.06
2018-08-18T10:22:05.180Z,25.85
2018-08-18T10:25:03.072Z,25.80
2018-08-18T10:28:02.126Z,25.47
2018-08-18T10:31:00.060Z,24.99
2018-08-18T10:33:58.076Z,25.33
2018-08-18T10:37:13.242Z,25.42
2018-08-18T10:40:17.188Z,25.42
2018-08-18T10:43:14.977Z,25.60
2018-08-18T10:46:12.583Z,25.51
2018-08-18T10:49:10.417Z,25.86
2018-08-18T10:52:20.479Z,26.37
2018-08-18T10:55:18.484Z,27.34
2018-08-18T10:58:21.417Z,27.56
2018-08-18T11:01:19.234Z,29.08
2018-08-18T11:04:16.359Z,28.44
2018-08-18T11:07:13.334Z,27.70
2018-08-18T11:10:11.181Z,29.09
2018-08-18T11:13:08.442Z,30.07
2018-08-18T11:16:06.335Z,30.33
2018-08-18T11:19:04.260Z,30.62
2018-08-18T11:22:04.303Z,30.52
2018-08-18T11:25:02.128Z,30.61
2018-08-18T11:28:01.296Z,30.78
2018-08-18T11:30:58.295Z,30.26
2018-08-18T11:34:00.230Z,29.63
2018-08-18T11:37:06.567Z,29.81
2018-08-18T11:40:08.665Z,28.47
2018-08-18T11:43:05.712Z,26.62
2018-08-18T11:46:03.050Z,26.19
2018-08-18T11:49:00.428Z,25.94
2018-08-18T11:51:58.351Z,25.69
2018-08-18T11:54:56.251Z,25.44
2018-08-18T11:57:53.339Z,25.32
2018-08-18T12:00:57.893Z,25.41
2018-08-18T12:03:56.017Z,25.66
2018-08-18T12:06:59.971Z,25.60
2018-08-18T12:10:00.103Z,24.63
2018-08-18T12:12:57.986Z,25.01
2018-08-18T12:16:06.295Z,25.47
2018-08-18T12:19:03.998Z,25.99
2018-08-18T12:22:01.916Z,25.71
2018-08-18T12:25:05.237Z,25.54
2018-08-18T12:28:03.150Z,25.19
2018-08-18T12:31:01.277Z,25.53
2018-08-18T12:33:59.060Z,25.61
2018-08-18T12:36:57.243Z,25.58
2018-08-18T12:39:54.970Z,25.75
2018-08-18T12:42:52.768Z,25.93
2018-08-18T12:45:54.939Z,26.01
2018-08-18T12:48:53.003Z,25.72
2018-08-18T12:51:51.245Z,25.94
2018-08-18T12:54:49.139Z,26.04
2018-08-18T12:57:53.369Z,26.01
2018-08-18T13:00:50.728Z,26.46
2018-08-18T13:03:48.516Z,26.22
2018-08-18T13:06:50.090Z,26.06
2018-08-18T13:09:47.732Z,26.00
2018-08-18T13:12:45.598Z,25.97
2018-08-18T13:15:43.376Z,26.00
2018-08-18T13:18:40.502Z,26.11
2018-08-18T13:21:38.368Z,26.14
2018-08-18T13:24:36.258Z,26.48
2018-08-18T13:27:34.328Z,26.45
2018-08-18T13:30:33.311Z,26.12
2018-08-18T13:33:31.442Z,26.08
2018-08-18T13:36:28.568Z,25.95
2018-08-18T13:39:27.775Z,25.73
2018-08-18T13:42:37.492Z,25.70
2018-08-18T13:45:41.836Z,26.05
2018-08-18T13:48:39.514Z,25.87
2018-08-18T13:51:37.502Z,25.82
2018-08-18T13:54:34.840Z,26.00
2018-08-18T13:57:43.093Z,26.03
2018-08-18T14:00:40.938Z,25.91
2018-08-18T14:03:54.373Z,26.01
2018-08-18T14:06:57.719Z,26.01
2018-08-18T14:10:02.136Z,26.19
2018-08-18T14:13:00.485Z,26.37
2018-08-18T14:16:04.206Z,26.18
2018-08-18T14:19:02.248Z,26.09
2018-08-18T14:22:15.077Z,25.82
2018-08-18T14:25:12.431Z,25.86
2018-08-18T14:28:11.623Z,26.03
2018-08-18T14:31:09.512Z,25.81
2018-08-18T14:34:07.615Z,25.88
2018-08-18T14:37:10.704Z,25.61
2018-08-18T14:40:08.036Z,25.71
2018-08-18T14:43:05.188Z,25.74
2018-08-18T14:46:03.144Z,25.93
2018-08-18T14:49:01.021Z,25.87
2018-08-18T14:51:59.085Z,25.80
2018-08-18T14:54:56.371Z,25.83
2018-08-18T14:58:01.516Z,25.86
2018-08-18T15:01:03.359Z,25.71
2018-08-18T15:04:01.170Z,25.80
2018-08-18T15:06:59.219Z,25.71
2018-08-18T15:10:00.422Z,25.76
2018-08-18T15:12:58.470Z,25.78
2018-08-18T15:15:56.508Z,25.87
2018-08-18T15:18:54.182Z,25.85
2018-08-18T15:21:52.191Z,25.78
2018-08-18T15:24:49.191Z,25.46
2018-08-18T15:27:47.346Z,25.63
2018-08-18T15:30:45.787Z,25.67
2018-08-18T15:33:43.128Z,25.72
2018-08-18T15:36:47.141Z,25.71
2018-08-18T15:39:47.107Z,25.52
2018-08-18T15:42:44.421Z,25.38
2018-08-18T15:45:42.529Z,25.40
2018-08-18T15:48:40.708Z,25.37
2018-08-18T15:51:37.691Z,25.30
2018-08-18T15:54:37.881Z,25.34
2018-08-18T15:57:36.047Z,25.21
2018-08-18T16:06:04.446Z,25.36
2018-08-18T16:09:02.501Z,25.45
2018-08-18T16:12:00.321Z,25.45
2018-08-18T16:14:58.076Z,25.41
2018-08-18T16:17:56.020Z,25.44
2018-08-18T16:20:55.764Z,25.25
2018-08-18T16:23:53.646Z,25.22
2018-08-18T16:26:50.600Z,25.20
2018-08-18T16:29:48.564Z,25.24
2018-08-18T16:32:46.745Z,25.17
2018-08-18T16:35:44.708Z,25.17
2018-08-18T16:38:42.835Z,25.14
2018-08-18T16:41:40.552Z,25.20
2018-08-18T16:44:38.551Z,25.15
2018-08-18T16:47:36.648Z,25.21
2018-08-18T16:50:34.528Z,25.22
2018-08-18T16:53:32.381Z,25.17
2018-08-18T16:56:36.691Z,25.17
2018-08-18T16:59:34.868Z,25.12
2018-08-18T17:02:43.806Z,25.04
2018-08-18T17:05:41.788Z,25.05
2018-08-18T17:08:39.583Z,25.00
2018-08-18T17:11:37.460Z,24.85
2018-08-18T17:14:35.501Z,24.84
2018-08-18T17:17:33.357Z,24.69
2018-08-18T17:20:32.176Z,24.63
2018-08-18T17:23:29.963Z,24.44
2018-08-18T17:26:27.892Z,24.28
2018-08-18T17:29:25.762Z,24.12
2018-08-18T17:32:23.518Z,23.94
2018-08-18T17:35:21.517Z,23.85
2018-08-18T17:38:19.182Z,23.77
2018-08-18T17:41:17.042Z,23.73
2018-08-18T17:44:14.927Z,23.59
2018-08-18T17:47:12.825Z,23.47
2018-08-18T17:50:10.538Z,23.38
2018-08-18T17:53:08.436Z,23.24
2018-08-18T17:56:12.359Z,23.17
2018-08-18T17:59:10.230Z,23.07
2018-08-18T18:02:16.212Z,23.05
2018-08-18T18:05:15.075Z,22.99
2018-08-18T18:08:15.082Z,22.90
2018-08-18T18:11:12.743Z,22.87
2018-08-18T18:14:10.741Z,22.75
2018-08-18T18:17:08.591Z,22.68
2018-08-18T18:20:06.474Z,22.58
2018-08-18T18:23:04.289Z,22.55
2018-08-18T18:26:02.334Z,22.42
2018-08-18T18:29:00.391Z,22.28
2018-08-18T18:31:58.432Z,22.24
2018-08-18T18:34:56.267Z,22.10
2018-08-18T18:37:54.149Z,22.09
2018-08-18T18:40:56.176Z,21.89
2018-08-18T18:43:57.568Z,21.78
2018-08-18T18:46:55.096Z,21.56
2018-08-18T18:49:53.194Z,21.34
2018-08-18T18:52:50.538Z,21.20
2018-08-18T18:55:53.421Z,21.05
2018-08-18T18:58:51.454Z,20.95
2018-08-18T19:01:48.695Z,20.72
2018-08-18T19:04:47.374Z,20.50
2018-08-18T19:07:45.343Z,20.18
2018-08-18T19:10:44.216Z,20.04
2018-08-18T19:13:41.824Z,19.95
2018-08-18T19:16:39.747Z,19.88
2018-08-18T19:19:37.916Z,19.89
2018-08-18T19:22:35.908Z,20.00
2018-08-18T19:25:33.980Z,20.00
2018-08-18T19:28:35.368Z,20.01
2018-08-18T19:31:41.665Z,20.17
2018-08-18T19:34:39.594Z,20.25
2018-08-18T19:37:37.657Z,20.27
2018-08-18T19:40:35.977Z,20.20
2018-08-18T19:43:35.076Z,20.22
2018-08-18T19:46:33.221Z,20.24
2018-08-18T19:49:37.363Z,20.12
2018-08-18T19:52:36.275Z,20.05
2018-08-18T19:55:34.301Z,19.94
2018-08-18T19:58:33.142Z,19.91
2018-08-18T20:01:31.186Z,19.68
2018-08-18T20:04:34.157Z,19.65
2018-08-18T20:07:32.104Z,19.57
2018-08-18T20:10:29.977Z,19.52
2018-08-18T20:13:28.898Z,19.39
2018-08-18T20:16:27.127Z,19.19
2018-08-18T20:19:25.887Z,18.94
2018-08-18T20:22:28.108Z,19.02
2018-08-18T20:25:25.739Z,18.80
2018-08-18T20:28:23.480Z,18.80
2018-08-18T20:31:21.467Z,18.74
2018-08-18T20:34:19.176Z,18.75
2018-08-18T20:37:17.007Z,18.81
2018-08-18T20:40:15.936Z,18.61
2018-08-18T20:43:15.856Z,18.63
2018-08-18T20:46:13.876Z,18.56
2018-08-18T20:49:11.757Z,18.55
2018-08-18T20:52:09.539Z,18.27
2018-08-18T20:55:07.428Z,18.07
2018-08-18T20:58:05.488Z,18.20
2018-08-18T21:01:03.380Z,18.20
2018-08-18T21:04:07.296Z,18.12
2018-08-18T21:07:05.262Z,17.87
2018-08-18T21:10:03.249Z,17.81
2018-08-18T21:13:01.302Z,17.78
2018-08-18T21:15:59.204Z,17.73
2018-08-18T21:18:57.116Z,17.74
2018-08-18T21:21:54.999Z,17.75
2018-08-18T21:24:52.916Z,17.80
2018-08-18T21:27:50.755Z,17.79
2018-08-18T21:30:48.776Z,17.79
2018-08-18T21:33:48.678Z,17.72
2018-08-18T21:36:46.728Z,17.69
2018-08-18T21:39:44.658Z,17.50
2018-08-18T21:42:42.627Z,17.42
2018-08-18T21:45:46.654Z,17.35
2018-08-18T21:48:55.051Z,17.37
2018-08-18T21:51:52.905Z,17.40
2018-08-18T21:54:50.874Z,17.39
2018-08-18T21:57:59.431Z,17.37
2018-08-18T22:00:56.420Z,17.37
2018-08-18T22:03:55.492Z,17.25
2018-08-18T22:06:53.631Z,17.34
2018-08-18T22:09:51.547Z,17.21
2018-08-18T22:12:49.356Z,17.02
2018-08-18T22:15:47.205Z,17.12
2018-08-18T22:18:45.018Z,17.09
2018-08-18T22:21:43.127Z,17.15
2018-08-18T22:24:41.165Z,17.04
2018-08-18T22:27:42.001Z,16.83
2018-08-18T22:30:39.671Z,16.79
2018-08-18T22:33:41.743Z,16.83
2018-08-18T22:36:40.801Z,16.80
2018-08-18T22:39:40.984Z,16.91
2018-08-18T22:42:38.633Z,16.75
2018-08-18T22:45:42.690Z,16.72
2018-08-18T22:48:40.673Z,16.71
2018-08-18T22:51:38.404Z,16.79
2018-08-18T22:54:35.608Z,16.78
2018-08-18T22:57:34.758Z,16.85
2018-08-18T23:00:32.112Z,16.76
2018-08-18T23:03:29.458Z,16.68
2018-08-18T23:06:27.344Z,16.60
2018-08-18T23:09:25.527Z,16.51
2018-08-18T23:12:24.620Z,16.37
2018-08-18T23:15:22.464Z,16.44
2018-08-18T23:18:20.083Z,16.36
2018-08-18T23:21:22.057Z,16.34
2018-08-18T23:24:30.271Z,16.31
2018-08-18T23:27:27.782Z,16.29
2018-08-18T23:30:34.521Z,16.23
2018-08-18T23:33:32.549Z,16.15
2018-08-18T23:36:30.513Z,15.92
2018-08-18T23:39:29.244Z,15.90
2018-08-18T23:42:34.394Z,15.92
2018-08-18T23:45:36.537Z,16.04
2018-08-18T23:48:33.879Z,16.07
2018-08-18T23:51:35.883Z,15.93
2018-08-18T23:54:33.711Z,15.89
2018-08-18T23:57:31.704Z,15.96
